createdAt,value
2019-05-20T00:00:40.536Z,15.83
2019-05-20T00:03:09.234Z,17.87
2019-05-20T00:05:37.968Z,17.70
2019-05-20T00:08:06.621Z,17.15
2019-05-20T00:10:35.296Z,16.35
2019-05-20T00:13:04.077Z,18.30
2019-05-20T00:15:32.771Z,18.10
2019-05-20T00:18:01.435Z,18.52
2019-05-20T00:20:30.482Z,17.82
2019-05-20T00:22:59.162Z,18.87
2019-05-20T00:25:27.852Z,19.60
2019-05-20T00:27:56.608Z,16.97
2019-05-20T00:30:25.360Z,16.57
2019-05-20T00:32:54.064Z,18.67
2019-05-20T00:35:22.734Z,20.92
2019-05-20T00:37:51.419Z,20.75
2019-05-20T00:40:20.405Z,18.77
2019-05-20T00:42:49.443Z,17.05
2019-05-20T00:45:18.521Z,17.62
2019-05-20T00:47:47.214Z,21.12
2019-05-20T00:50:16.374Z,23.40
2019-05-20T00:52:45.205Z,19.62
2019-05-20T00:55:27.209Z,21.90
2019-05-20T00:57:55.966Z,20.60
2019-05-20T01:00:25.217Z,21.70
2019-05-20T01:02:56.917Z,22.27
2019-05-20T01:05:24.825Z,25.50
2019-05-20T01:07:53.535Z,25.02
2019-05-20T01:10:22.290Z,27.55
2019-05-20T01:12:51.048Z,28.50
2019-05-20T01:15:20.061Z,26.35
2019-05-20T01:17:49.028Z,25.35
2019-05-20T01:20:18.055Z,22.60
2019-05-20T01:22:46.765Z,19.57
2019-05-20T01:25:15.541Z,25.27
2019-05-20T01:27:44.849Z,25.60
2019-05-20T01:30:14.392Z,28.07
2019-05-20T01:32:44.509Z,31.48
2019-05-20T01:35:14.161Z,30.70
2019-05-20T01:37:43.113Z,27.02
2019-05-20T01:40:12.697Z,29.37
2019-05-20T01:42:41.371Z,25.20
2019-05-20T01:45:10.439Z,25.82
2019-05-20T01:47:39.216Z,27.60
2019-05-20T01:50:08.991Z,27.30
2019-05-20T01:52:37.934Z,26.27
2019-05-20T01:55:07.175Z,25.97
2019-05-20T01:57:36.258Z,29.05
2019-05-20T02:00:06.565Z,28.02
2019-05-20T02:02:35.260Z,26.40
2019-05-20T02:05:05.415Z,27.98
2019-05-20T02:07:34.124Z,32.75
2019-05-20T02:10:03.483Z,29.70
2019-05-20T02:12:32.170Z,33.33
2019-05-20T02:15:06.865Z,31.33
2019-05-20T02:17:35.632Z,34.18
2019-05-20T02:20:05.797Z,35.10
2019-05-20T02:22:34.577Z,35.40
2019-05-20T02:25:04.115Z,32.78
2019-05-20T02:27:33.101Z,36.73
2019-05-20T02:30:02.509Z,29.80
2019-05-20T02:32:33.814Z,36.73
2019-05-20T02:35:03.884Z,36.28
2019-05-20T02:37:32.915Z,33.90
2019-05-20T02:40:01.677Z,31.77
2019-05-20T02:42:34.131Z,34.53
2019-05-20T02:45:19.625Z,36.03
2019-05-20T02:47:49.110Z,38.10
2019-05-20T02:50:17.969Z,36.50
2019-05-20T02:52:46.633Z,37.20
2019-05-20T02:55:16.428Z,36.40
2019-05-20T02:57:45.512Z,34.13
2019-05-20T03:00:16.301Z,38.60
2019-05-20T03:02:53.003Z,40.58
2019-05-20T03:05:32.721Z,35.17
2019-05-20T03:08:02.970Z,36.33
2019-05-20T03:10:37.546Z,32.88
2019-05-20T03:13:11.213Z,33.45
2019-05-20T03:15:51.277Z,35.92
2019-05-20T03:18:31.114Z,41.18
2019-05-20T03:21:02.801Z,38.05
2019-05-20T03:23:38.015Z,38.95
2019-05-20T03:26:13.484Z,37.75
2019-05-20T03:32:48.984Z,49.23
2019-05-20T03:40:01.384Z,41.70
2019-05-20T03:45:48.305Z,43.78
2019-05-20T03:48:18.211Z,37.33
2019-05-20T03:50:46.899Z,37.05
2019-05-20T03:53:15.596Z,41.98
2019-05-20T03:55:44.803Z,45.90
2019-05-20T03:58:14.185Z,44.98
2019-05-20T04:00:45.451Z,42.58
2019-05-20T04:03:15.303Z,40.23
2019-05-20T04:05:44.975Z,44.25
2019-05-20T04:08:14.074Z,45.85
2019-05-20T04:10:42.759Z,41.13
2019-05-20T04:13:12.662Z,35.45
2019-05-20T04:15:42.258Z,42.00
2019-05-20T04:18:11.560Z,40.17
2019-05-20T04:20:40.253Z,40.98
2019-05-20T04:23:09.061Z,41.65
2019-05-20T04:25:37.748Z,44.00
2019-05-20T04:28:06.497Z,45.98
2019-05-20T04:30:35.298Z,42.35
2019-05-20T04:33:03.963Z,42.93
2019-05-20T04:35:32.634Z,40.33
2019-05-20T04:38:01.375Z,32.85
2019-05-20T04:40:30.017Z,34.05
2019-05-20T04:42:59.043Z,36.20
2019-05-20T04:45:28.391Z,36.90
2019-05-20T04:47:57.096Z,40.20
2019-05-20T04:50:25.851Z,33.02
2019-05-20T04:52:54.557Z,38.55
2019-05-20T04:55:23.234Z,35.48
2019-05-20T04:57:51.932Z,32.50
2019-05-20T05:00:44.391Z,33.73
2019-05-20T05:03:13.084Z,33.50
2019-05-20T05:05:41.755Z,31.77
2019-05-20T05:08:11.134Z,32.15
2019-05-20T05:10:40.710Z,30.88
2019-05-20T05:13:09.941Z,27.93
2019-05-20T05:15:38.663Z,29.27
2019-05-20T05:18:07.505Z,30.97
2019-05-20T05:20:36.313Z,31.30
2019-05-20T05:23:05.163Z,29.50
2019-05-20T05:25:34.978Z,28.52
2019-05-20T05:28:04.656Z,26.05
2019-05-20T05:30:35.191Z,25.82
2019-05-20T05:33:04.885Z,27.27
2019-05-20T05:35:34.706Z,27.32
2019-05-20T05:38:04.300Z,26.17
2019-05-20T05:40:33.469Z,25.60
2019-05-20T05:43:02.483Z,27.30
2019-05-20T05:45:32.845Z,22.40
2019-05-20T05:48:02.728Z,23.83
2019-05-20T05:50:31.468Z,22.75
2019-05-20T05:53:00.174Z,20.72
2019-05-20T05:55:28.843Z,18.95
2019-05-20T05:57:57.583Z,18.80
2019-05-20T06:00:26.424Z,20.20
2019-05-20T06:02:55.111Z,21.25
2019-05-20T06:05:23.881Z,21.40
2019-05-20T06:07:52.871Z,21.20
2019-05-20T06:10:22.357Z,20.45
2019-05-20T06:12:50.997Z,22.73
2019-05-20T06:15:20.523Z,22.15
2019-05-20T06:17:49.189Z,21.62
2019-05-20T06:20:18.644Z,22.07
2019-05-20T06:22:47.310Z,21.90
2019-05-20T06:25:17.197Z,23.10
2019-05-20T06:27:45.897Z,23.45
2019-05-20T06:30:15.568Z,23.40
2019-05-20T06:32:44.386Z,26.48
2019-05-20T06:35:15.368Z,25.80
2019-05-20T06:37:51.230Z,27.30
2019-05-20T06:40:20.164Z,32.73
2019-05-20T06:42:49.583Z,33.90
2019-05-20T06:45:18.468Z,33.92
2019-05-20T06:47:48.555Z,35.43
2019-05-20T06:50:18.178Z,35.85
2019-05-20T06:52:46.836Z,35.15
2019-05-20T06:55:15.672Z,29.95
2019-05-20T06:57:44.697Z,33.88
2019-05-20T07:00:15.167Z,35.10
2019-05-20T07:02:43.835Z,36.73
2019-05-20T07:05:12.784Z,31.95
2019-05-20T07:07:41.433Z,33.42
2019-05-20T07:10:10.461Z,32.90
2019-05-20T07:12:41.476Z,35.08
2019-05-20T07:15:09.881Z,37.78
2019-05-20T07:17:38.559Z,38.53
2019-05-20T07:20:07.510Z,38.40
2019-05-20T07:22:53.936Z,40.85
2019-05-20T07:25:07.059Z,39.90
2019-05-20T07:27:35.722Z,40.12
2019-05-20T07:30:04.647Z,41.60
2019-05-20T07:32:33.339Z,37.25
2019-05-20T07:35:02.011Z,40.50
2019-05-20T07:37:30.698Z,39.15
2019-05-20T07:39:59.341Z,39.27
2019-05-20T07:42:28.004Z,41.02
2019-05-20T07:44:56.765Z,38.35
2019-05-20T07:47:25.768Z,41.75
2019-05-20T07:49:54.993Z,38.48
2019-05-20T07:52:25.472Z,40.17
2019-05-20T07:54:56.178Z,40.12
2019-05-20T07:57:28.053Z,42.20
2019-05-20T07:59:57.996Z,38.90
2019-05-20T08:02:29.012Z,38.35
2019-05-20T08:04:57.698Z,38.65
2019-05-20T08:07:35.665Z,37.67
2019-05-20T08:09:56.827Z,40.45
2019-05-20T08:12:25.587Z,38.50
2019-05-20T08:14:54.324Z,39.67
2019-05-20T08:17:23.370Z,39.38
2019-05-20T08:19:52.043Z,38.63
2019-05-20T08:22:20.721Z,38.88
2019-05-20T08:24:49.389Z,36.83
2019-05-20T08:27:18.073Z,38.35
2019-05-20T08:29:46.728Z,38.15
2019-05-20T08:32:15.432Z,38.30
2019-05-20T08:34:44.107Z,39.78
2019-05-20T08:37:14.993Z,41.55
2019-05-20T08:39:43.668Z,39.18
2019-05-20T08:42:12.459Z,39.83
2019-05-20T08:44:41.109Z,40.50
2019-05-20T08:47:09.808Z,40.00
2019-05-20T08:49:38.804Z,37.50
2019-05-20T08:52:07.750Z,40.52
2019-05-20T08:54:40.140Z,41.10
2019-05-20T08:57:06.919Z,42.40
2019-05-20T08:59:35.597Z,40.23
2019-05-20T09:02:04.347Z,38.17
2019-05-20T09:04:33.034Z,37.25
2019-05-20T09:07:01.888Z,38.78
2019-05-20T09:09:30.706Z,38.92
2019-05-20T09:11:59.451Z,41.33
2019-05-20T09:14:28.257Z,40.55
2019-05-20T09:16:56.958Z,42.73
2019-05-20T09:19:25.772Z,41.80
2019-05-20T09:21:54.466Z,40.60
2019-05-20T09:24:23.144Z,39.50
2019-05-20T09:26:51.852Z,40.48
2019-05-20T09:29:20.544Z,41.05
2019-05-20T09:31:49.729Z,39.88
2019-05-20T09:34:18.770Z,40.78
2019-05-20T09:36:47.619Z,38.95
2019-05-20T09:39:16.432Z,42.10
2019-05-20T09:41:45.133Z,43.73
2019-05-20T09:44:13.811Z,42.35
2019-05-20T09:46:42.511Z,42.23
2019-05-20T09:49:11.192Z,43.68
2019-05-20T09:51:39.890Z,41.18
2019-05-20T09:54:08.619Z,42.43
2019-05-20T09:56:37.309Z,41.53
2019-05-20T09:59:06.070Z,41.10
2019-05-20T10:01:34.781Z,42.05
2019-05-20T10:04:03.701Z,42.38
2019-05-20T10:06:32.365Z,42.35
2019-05-20T10:09:01.079Z,42.00
2019-05-20T10:11:29.741Z,39.98
2019-05-20T10:13:58.426Z,37.88
2019-05-20T10:16:27.120Z,38.55
2019-05-20T10:18:55.977Z,40.43
2019-05-20T10:21:24.684Z,39.58
2019-05-20T10:23:53.356Z,37.73
2019-05-20T10:26:22.015Z,37.53
2019-05-20T10:28:50.764Z,35.40
2019-05-20T10:31:19.457Z,35.90
2019-05-20T10:33:48.173Z,32.33
2019-05-20T10:36:16.875Z,33.92
2019-05-20T10:38:58.144Z,34.60
2019-05-20T10:41:15.993Z,35.23
2019-05-20T10:43:44.745Z,33.48
2019-05-20T10:46:13.502Z,34.25
2019-05-20T10:48:42.181Z,34.45
2019-05-20T10:51:10.928Z,35.75
2019-05-20T10:53:39.611Z,32.63
2019-05-20T10:56:08.363Z,33.50
2019-05-20T10:58:37.044Z,36.48
2019-05-20T11:01:05.816Z,37.15
2019-05-20T11:03:34.484Z,35.68
2019-05-20T11:06:03.295Z,32.67
2019-05-20T11:08:32.087Z,31.10
2019-05-20T11:11:00.787Z,37.23
2019-05-20T11:13:29.430Z,32.85
2019-05-20T11:15:58.121Z,33.85
2019-05-20T11:18:26.867Z,36.65
2019-05-20T11:20:55.741Z,34.18
2019-05-20T11:23:24.436Z,37.50
2019-05-20T11:25:53.087Z,34.53
2019-05-20T11:28:21.753Z,31.57
2019-05-20T11:30:50.434Z,33.40
2019-05-20T11:33:19.100Z,32.40
2019-05-20T11:35:47.798Z,30.70
2019-05-20T11:38:16.527Z,33.20
2019-05-20T11:40:45.692Z,36.90
2019-05-20T11:43:14.440Z,34.78
2019-05-20T11:45:43.103Z,34.43
2019-05-20T11:48:11.779Z,32.55
2019-05-20T11:50:40.464Z,32.80
2019-05-20T11:53:09.138Z,35.52
2019-05-20T11:55:37.816Z,33.60
2019-05-20T11:58:15.967Z,35.17
2019-05-20T12:00:37.213Z,34.78
2019-05-20T12:03:05.923Z,36.70
2019-05-20T12:05:34.579Z,36.85
2019-05-20T12:08:03.276Z,39.73
2019-05-20T12:10:31.953Z,37.67
2019-05-20T12:13:00.625Z,35.73
2019-05-20T12:15:29.323Z,34.78
2019-05-20T12:17:57.985Z,39.85
2019-05-20T12:20:26.658Z,38.95
2019-05-20T12:22:55.353Z,42.45
2019-05-20T12:25:24.009Z,40.17
2019-05-20T12:27:52.675Z,39.45
2019-05-20T12:30:21.546Z,38.40
2019-05-20T12:32:50.217Z,37.70
2019-05-20T12:35:18.974Z,38.08
2019-05-20T12:37:47.662Z,36.03
2019-05-20T12:40:16.484Z,35.60
2019-05-20T12:42:45.144Z,37.08
2019-05-20T12:45:15.223Z,37.45
2019-05-20T12:47:43.906Z,38.30
2019-05-20T12:50:13.410Z,40.03
2019-05-20T12:52:42.173Z,41.20
2019-05-20T12:55:11.601Z,36.93
2019-05-20T12:57:40.375Z,35.10
2019-05-20T13:00:11.892Z,41.92
2019-05-20T13:02:41.059Z,39.53
2019-05-20T13:05:10.497Z,40.17
2019-05-20T13:07:39.190Z,40.40
2019-05-20T13:10:26.534Z,40.05
2019-05-20T13:12:39.064Z,39.27
2019-05-20T13:15:08.301Z,36.98
2019-05-20T13:17:37.074Z,39.30
2019-05-20T13:20:06.723Z,39.40
2019-05-20T13:22:35.422Z,38.08
2019-05-20T13:25:04.174Z,34.33
2019-05-20T13:27:32.916Z,36.30
2019-05-20T13:30:01.604Z,37.13
2019-05-20T13:32:30.291Z,36.77
2019-05-20T13:34:58.998Z,37.30
2019-05-20T13:37:27.674Z,36.23
2019-05-20T13:39:56.362Z,37.65
2019-05-20T13:42:25.033Z,37.88
2019-05-20T13:44:53.704Z,37.95
2019-05-20T13:47:22.389Z,36.55
2019-05-20T13:49:51.138Z,39.45
2019-05-20T13:52:19.911Z,38.63
2019-05-20T13:54:48.677Z,39.60
2019-05-20T13:57:17.378Z,36.45
2019-05-20T13:59:46.072Z,35.75
2019-05-20T14:02:14.821Z,42.75
2019-05-20T14:04:43.519Z,38.42
2019-05-20T14:07:12.186Z,39.92
2019-05-20T14:09:40.867Z,37.63
2019-05-20T14:12:09.533Z,37.58
2019-05-20T14:14:38.217Z,37.33
2019-05-20T14:17:06.973Z,36.55
2019-05-20T14:19:35.947Z,35.25
2019-05-20T14:22:05.055Z,36.58
2019-05-20T14:24:34.077Z,37.42
2019-05-20T14:27:02.811Z,39.25
2019-05-20T14:29:31.450Z,35.92
2019-05-20T14:32:03.053Z,39.85
2019-05-20T14:34:31.931Z,39.20
2019-05-20T14:37:00.655Z,40.05
2019-05-20T14:39:30.211Z,45.38
2019-05-20T14:41:58.880Z,42.65
2019-05-20T14:44:27.561Z,44.30
2019-05-20T14:46:56.268Z,41.90
2019-05-20T14:49:24.935Z,44.80
2019-05-20T14:51:53.619Z,45.90
2019-05-20T14:54:23.952Z,47.23
2019-05-20T14:56:52.630Z,46.23
2019-05-20T14:59:21.936Z,47.08
2019-05-20T15:01:50.609Z,49.65
2019-05-20T15:04:19.313Z,46.63
2019-05-20T15:06:50.864Z,49.80
2019-05-20T15:09:21.650Z,49.67
2019-05-20T15:11:50.817Z,35.78
2019-05-20T15:14:21.508Z,28.98
2019-05-20T15:16:50.250Z,11.57
2019-05-20T15:19:20.191Z,9.23
2019-05-20T15:21:48.865Z,8.28
2019-05-20T15:24:17.559Z,7.47
2019-05-20T15:26:46.269Z,7.55
2019-05-20T15:29:27.661Z,9.10
2019-05-20T15:31:45.736Z,10.53
2019-05-20T15:34:14.403Z,8.75
2019-05-20T15:36:43.170Z,11.73
2019-05-20T15:39:11.873Z,9.95
2019-05-20T15:41:40.540Z,10.05
2019-05-20T15:44:09.995Z,8.50
2019-05-20T15:46:38.652Z,6.80
2019-05-20T15:49:07.328Z,7.12
2019-05-20T15:51:36.040Z,7.35
2019-05-20T15:54:04.853Z,8.08
2019-05-20T15:56:33.483Z,8.85
2019-05-20T15:59:02.448Z,10.93
2019-05-20T16:01:31.207Z,9.50
2019-05-20T16:03:59.883Z,11.63
2019-05-20T16:06:28.733Z,11.78
2019-05-20T16:08:58.678Z,11.20
2019-05-20T16:11:29.329Z,9.88
2019-05-20T16:13:58.546Z,9.88
2019-05-20T16:16:27.618Z,10.28
2019-05-20T16:18:56.275Z,9.70
2019-05-20T16:21:24.943Z,11.15
2019-05-20T16:23:53.635Z,13.32
2019-05-20T16:26:22.391Z,11.08
2019-05-20T16:28:51.074Z,12.15
2019-05-20T16:31:19.760Z,12.93
2019-05-20T16:33:48.514Z,12.03
2019-05-20T16:36:17.201Z,12.82
2019-05-20T16:38:45.893Z,13.80
2019-05-20T16:41:14.583Z,13.72
2019-05-20T16:43:43.340Z,12.15
2019-05-20T16:46:11.997Z,12.73
2019-05-20T16:48:40.700Z,12.47
2019-05-20T16:51:09.374Z,13.08
2019-05-20T16:53:38.034Z,12.65
2019-05-20T16:56:06.725Z,11.97
2019-05-20T16:58:35.411Z,10.10
2019-05-20T17:01:04.152Z,11.75
2019-05-20T17:03:32.815Z,12.20
2019-05-20T17:06:01.505Z,12.28
2019-05-20T17:08:30.187Z,11.55
2019-05-20T17:10:58.919Z,11.20
2019-05-20T17:13:27.606Z,12.37
2019-05-20T17:15:56.305Z,11.95
2019-05-20T17:18:24.952Z,9.48
2019-05-20T17:20:53.711Z,10.63
2019-05-20T17:23:22.482Z,9.93
2019-05-20T17:25:51.228Z,9.68
2019-05-20T17:28:19.953Z,9.83
2019-05-20T17:30:48.630Z,10.88
2019-05-20T17:33:17.285Z,11.55
2019-05-20T17:35:46.082Z,12.03
2019-05-20T17:38:14.760Z,10.72
2019-05-20T17:40:43.784Z,12.07
2019-05-20T17:43:12.446Z,13.00
2019-05-20T17:45:41.204Z,14.85
2019-05-20T17:48:09.895Z,14.00
2019-05-20T17:50:38.720Z,14.53
2019-05-20T17:53:07.388Z,17.07
2019-05-20T17:55:36.200Z,19.20
2019-05-20T17:58:04.874Z,15.60
2019-05-20T18:00:33.524Z,16.95
2019-05-20T18:03:02.203Z,18.32
2019-05-20T18:05:30.896Z,20.48
2019-05-20T18:07:59.563Z,22.60
2019-05-20T18:10:28.213Z,27.30
2019-05-20T18:12:56.882Z,30.55
2019-05-20T18:15:25.609Z,22.25
2019-05-20T18:17:54.304Z,27.45
2019-05-20T18:20:23.033Z,30.57
2019-05-20T18:22:51.694Z,32.15
2019-05-20T18:25:20.389Z,32.85
2019-05-20T18:27:49.209Z,43.38
2019-05-20T18:30:18.113Z,33.53
2019-05-20T18:32:46.800Z,32.23
2019-05-20T18:35:15.733Z,34.33
2019-05-20T18:37:44.450Z,39.10
2019-05-20T18:40:14.981Z,38.53
2019-05-20T18:42:43.964Z,41.20
2019-05-20T18:45:12.768Z,45.05
2019-05-20T18:47:41.524Z,45.78
2019-05-20T18:50:11.879Z,40.75
2019-05-20T18:52:40.536Z,44.80
2019-05-20T18:55:09.372Z,43.08
2019-05-20T18:57:38.068Z,43.75
2019-05-20T19:00:08.679Z,45.23
2019-05-20T19:02:37.329Z,48.63
2019-05-20T19:05:07.301Z,49.90
2019-05-20T19:07:35.965Z,45.30
2019-05-20T19:10:05.282Z,44.67
2019-05-20T19:12:33.985Z,43.30
2019-05-20T19:15:02.720Z,39.65
2019-05-20T19:17:31.395Z,30.55
2019-05-20T19:20:00.426Z,37.78
2019-05-20T19:22:29.106Z,36.53
2019-05-20T19:24:57.778Z,39.18
2019-05-20T19:27:26.471Z,39.00
2019-05-20T19:29:55.128Z,39.45
2019-05-20T19:32:24.469Z,35.95
2019-05-20T19:34:53.175Z,36.08
2019-05-20T19:37:21.852Z,39.33
2019-05-20T19:39:50.533Z,43.90
2019-05-20T19:42:19.323Z,48.15
2019-05-20T19:44:47.984Z,49.38
2019-05-20T19:47:16.729Z,44.83
2019-05-20T19:49:45.414Z,41.15
2019-05-20T19:52:14.175Z,43.60
2019-05-20T19:54:42.833Z,44.93
2019-05-20T19:57:11.518Z,44.13
2019-05-20T19:59:40.467Z,45.92
2019-05-20T20:02:16.788Z,48.58
2019-05-20T20:04:39.624Z,50.67
2019-05-20T20:07:08.292Z,50.33
2019-05-20T20:09:36.982Z,49.27
2019-05-20T20:12:05.683Z,51.73
2019-05-20T20:14:34.344Z,56.05
2019-05-20T20:17:03.021Z,55.73
2019-05-20T20:19:32.014Z,50.78
2019-05-20T20:22:00.695Z,55.12
2019-05-20T20:24:29.705Z,51.58
2019-05-20T20:26:58.441Z,47.65
2019-05-20T20:29:27.129Z,49.70
2019-05-20T20:31:55.909Z,54.50
2019-05-20T20:34:24.610Z,54.33
2019-05-20T20:36:53.371Z,56.88
2019-05-20T20:39:22.411Z,55.17
2019-05-20T20:41:51.407Z,56.83
2019-05-20T20:44:20.073Z,49.30
2019-05-20T20:46:48.822Z,39.95
2019-05-20T20:49:17.512Z,41.88
2019-05-20T20:51:46.192Z,45.38
2019-05-20T20:54:14.894Z,47.43
2019-05-20T20:56:43.562Z,45.30
2019-05-20T20:59:12.251Z,36.10
2019-05-20T21:01:40.934Z,37.85
2019-05-20T21:04:09.591Z,39.48
2019-05-20T21:06:38.254Z,43.00
2019-05-20T21:09:07.204Z,45.73
2019-05-20T21:11:35.904Z,51.58
2019-05-20T21:14:04.642Z,50.23
2019-05-20T21:16:33.292Z,49.20
2019-05-20T21:19:02.082Z,47.95
2019-05-20T21:21:30.762Z,46.60
2019-05-20T21:23:59.437Z,46.48
2019-05-20T21:26:28.129Z,47.70
2019-05-20T21:28:56.800Z,50.80
2019-05-20T21:31:25.464Z,46.00
2019-05-20T21:33:54.149Z,46.90
2019-05-20T21:36:22.811Z,53.40
2019-05-20T21:38:51.542Z,54.67
2019-05-20T21:41:20.176Z,56.10
2019-05-20T21:43:48.864Z,56.02
2019-05-20T21:46:17.545Z,50.92
2019-05-20T21:48:46.209Z,51.05
2019-05-20T21:51:14.887Z,52.38
2019-05-20T21:53:43.635Z,51.98
2019-05-20T21:56:12.314Z,54.08
2019-05-20T21:58:41.094Z,55.63
2019-05-20T22:01:09.765Z,56.00
2019-05-20T22:03:38.455Z,55.67
2019-05-20T22:06:07.288Z,58.25
2019-05-20T22:08:35.973Z,52.60
2019-05-20T22:11:04.637Z,51.77
2019-05-20T22:13:33.328Z,53.23
2019-05-20T22:16:02.066Z,56.10
2019-05-20T22:18:30.800Z,57.23
2019-05-20T22:20:59.460Z,55.80
2019-05-20T22:23:33.610Z,59.60
2019-05-20T22:26:02.316Z,56.30
2019-05-20T22:28:30.970Z,43.85
2019-05-20T22:30:59.635Z,43.78
2019-05-20T22:33:40.449Z,29.18
2019-05-20T22:35:58.732Z,41.60
2019-05-20T22:38:27.405Z,43.23
2019-05-20T22:40:56.077Z,36.90
2019-05-20T22:43:24.747Z,33.38
2019-05-20T22:45:53.533Z,36.98
2019-05-20T22:48:22.237Z,35.38
2019-05-20T22:50:50.967Z,40.43
2019-05-20T22:53:19.660Z,39.25
2019-05-20T22:55:48.325Z,39.88
2019-05-20T22:58:17.088Z,36.75
2019-05-20T23:00:45.831Z,31.95
2019-05-20T23:03:14.565Z,30.20
2019-05-20T23:05:43.172Z,37.45
2019-05-20T23:08:11.868Z,41.83
2019-05-20T23:10:40.531Z,43.75
2019-05-20T23:13:09.213Z,40.88
2019-05-20T23:15:37.898Z,38.13
2019-05-20T23:18:06.574Z,40.88
2019-05-20T23:20:35.352Z,38.92
2019-05-20T23:23:04.015Z,39.85
2019-05-20T23:25:32.966Z,32.38
2019-05-20T23:28:01.636Z,37.40
2019-05-20T23:30:30.331Z,35.60
2019-05-20T23:32:59.019Z,36.58
2019-05-20T23:35:27.696Z,29.95
2019-05-20T23:37:56.387Z,23.90
2019-05-20T23:40:25.066Z,27.02
2019-05-20T23:42:53.779Z,24.20
2019-05-20T23:45:22.428Z,21.07
2019-05-20T23:47:51.163Z,18.73
2019-05-20T23:50:19.891Z,21.60
2019-05-20T23:52:48.632Z,22.52
2019-05-20T23:55:17.459Z,24.25
2019-05-20T23:57:46.144Z,25.15
